createdAt,value
2022-12-04T00:01:44.269Z,402.52
2022-12-04T00:04:12.651Z,376.42
2022-12-04T00:06:40.784Z,372.38
2022-12-04T00:09:08.839Z,363.17
2022-12-04T00:11:37.027Z,357.48
2022-12-04T00:14:07.193Z,386.60
2022-12-04T00:16:35.732Z,377.58
2022-12-04T00:19:03.407Z,366.13
2022-12-04T00:21:30.933Z,353.90
2022-12-04T00:23:58.485Z,350.42
2022-12-04T00:26:27.782Z,351.50
2022-12-04T00:28:55.853Z,360.27
2022-12-04T00:31:27.156Z,352.30
2022-12-04T00:33:54.772Z,346.42
2022-12-04T00:36:25.095Z,344.55
2022-12-04T00:38:52.672Z,327.55
2022-12-04T00:41:25.362Z,333.98
2022-12-04T00:43:53.271Z,342.02
2022-12-04T00:46:20.867Z,347.65
2022-12-04T00:48:48.422Z,328.40
2022-12-04T00:51:20.977Z,429.95
2022-12-04T00:53:50.570Z,368.63
2022-12-04T00:56:27.796Z,363.83
2022-12-04T00:58:58.773Z,369.98
2022-12-04T01:01:30.090Z,357.08
2022-12-04T01:04:00.004Z,340.75
2022-12-04T01:06:33.405Z,365.50
2022-12-04T01:09:10.606Z,333.48
2022-12-04T01:11:39.647Z,347.73
2022-12-04T01:14:07.822Z,343.65
2022-12-04T01:16:44.101Z,331.90
2022-12-04T01:19:18.770Z,324.83
2022-12-04T01:21:46.788Z,291.20
2022-12-04T01:24:18.899Z,313.83
2022-12-04T01:26:47.770Z,286.00
2022-12-04T01:29:15.179Z,286.92
2022-12-04T01:31:42.845Z,281.15
2022-12-04T01:34:17.497Z,298.73
2022-12-04T01:36:46.438Z,292.80
2022-12-04T01:39:23.777Z,287.90
2022-12-04T01:41:58.505Z,293.65
2022-12-04T01:44:27.026Z,283.25
2022-12-04T01:46:56.890Z,288.15
2022-12-04T01:49:31.297Z,287.13
2022-12-04T01:52:03.987Z,329.58
2022-12-04T01:54:41.006Z,324.15
2022-12-04T01:57:11.854Z,318.02
2022-12-04T01:59:52.405Z,347.27
2022-12-04T02:02:26.918Z,343.48
2022-12-04T02:04:55.003Z,328.23
2022-12-04T02:07:22.463Z,291.17
2022-12-04T02:09:56.158Z,287.85
2022-12-04T02:12:32.953Z,263.50
2022-12-04T02:15:18.091Z,277.42
2022-12-04T02:17:48.357Z,291.42
2022-12-04T02:20:27.367Z,282.35
2022-12-04T02:23:13.158Z,294.85
2022-12-04T02:25:52.595Z,274.95
2022-12-04T02:28:27.167Z,296.42
2022-12-04T02:30:58.988Z,290.95
2022-12-04T02:34:07.788Z,301.63
2022-12-04T02:36:45.234Z,298.65
2022-12-04T02:39:34.875Z,309.75
2022-12-04T02:42:11.078Z,289.45
2022-12-04T02:44:45.206Z,287.92
2022-12-04T02:47:16.601Z,282.10
2022-12-04T02:49:55.732Z,293.42
2022-12-04T02:52:32.149Z,285.30
2022-12-04T02:55:08.663Z,266.88
2022-12-04T02:57:41.125Z,272.63
2022-12-04T03:00:10.086Z,273.15
2022-12-04T03:02:49.967Z,307.88
2022-12-04T03:05:21.760Z,288.13
2022-12-04T03:07:57.550Z,282.10
2022-12-04T03:10:36.781Z,252.05
2022-12-04T03:13:10.446Z,265.30
2022-12-04T03:15:43.941Z,259.20
2022-12-04T03:18:22.878Z,256.90
2022-12-04T03:20:57.743Z,239.65
2022-12-04T03:23:37.766Z,254.95
2022-12-04T03:26:15.881Z,243.38
2022-12-04T03:28:57.124Z,269.25
2022-12-04T03:31:40.479Z,252.35
2022-12-04T03:34:10.167Z,286.40
2022-12-04T03:36:47.329Z,271.77
2022-12-04T03:39:34.839Z,248.45
2022-12-04T03:42:11.414Z,261.98
2022-12-04T03:44:44.642Z,244.35
2022-12-04T03:47:12.125Z,253.82
2022-12-04T03:49:59.492Z,273.70
2022-12-04T03:52:59.516Z,251.68
2022-12-04T03:55:35.619Z,251.07
2022-12-04T03:58:08.374Z,259.23
2022-12-04T04:00:39.902Z,233.88
2022-12-04T04:03:13.321Z,272.83
2022-12-04T04:05:45.888Z,223.25
2022-12-04T04:08:28.226Z,242.35
2022-12-04T04:11:00.926Z,227.32
2022-12-04T04:13:57.475Z,222.43
2022-12-04T04:16:47.225Z,207.37
2022-12-04T04:19:37.695Z,223.18
2022-12-04T04:22:27.362Z,234.80
2022-12-04T04:25:04.658Z,219.30
2022-12-04T04:27:32.050Z,235.52
2022-12-04T04:30:00.136Z,228.43
2022-12-04T04:32:46.039Z,237.00
2022-12-04T04:35:22.034Z,201.05
2022-12-04T04:37:52.259Z,221.68
2022-12-04T04:40:26.016Z,238.73
2022-12-04T04:43:10.887Z,236.77
2022-12-04T04:45:45.952Z,226.40
2022-12-04T04:48:29.560Z,251.93
2022-12-04T04:51:00.132Z,238.63
2022-12-04T04:53:33.619Z,238.82
2022-12-04T04:56:03.018Z,240.98
2022-12-04T04:58:30.236Z,242.57
2022-12-04T05:01:02.613Z,232.60
2022-12-04T05:03:31.871Z,217.80
2022-12-04T05:05:59.755Z,195.88
2022-12-04T05:08:27.292Z,215.20
2022-12-04T05:10:54.864Z,208.00
2022-12-04T05:13:22.584Z,214.52
2022-12-04T05:16:01.431Z,207.60
2022-12-04T05:18:29.218Z,209.30
2022-12-04T05:20:57.189Z,204.52
2022-12-04T05:23:24.927Z,209.30
2022-12-04T05:26:03.099Z,224.93
2022-12-04T05:28:30.427Z,234.75
2022-12-04T05:31:00.238Z,242.90
2022-12-04T05:33:27.961Z,236.07
2022-12-04T05:36:03.554Z,328.50
2022-12-04T05:38:31.510Z,288.95
2022-12-04T05:41:20.997Z,254.95
2022-12-04T05:44:30.297Z,282.25
2022-12-04T05:47:22.118Z,278.70
2022-12-04T05:50:41.508Z,248.60
2022-12-04T05:53:09.145Z,235.77
2022-12-04T05:55:37.756Z,195.30
2022-12-04T05:58:05.341Z,200.23
2022-12-04T06:00:32.666Z,225.90
2022-12-04T06:03:00.342Z,252.05
2022-12-04T06:05:27.653Z,238.43
2022-12-04T06:07:55.262Z,247.20
2022-12-04T06:10:22.583Z,218.32
2022-12-04T06:12:50.056Z,206.50
2022-12-04T06:15:17.258Z,199.35
2022-12-04T06:17:44.789Z,209.25
2022-12-04T06:20:12.389Z,205.57
2022-12-04T06:22:41.914Z,264.67
2022-12-04T06:25:09.605Z,268.45
2022-12-04T06:27:37.181Z,261.35
2022-12-04T06:30:07.983Z,289.20
2022-12-04T06:32:35.544Z,277.98
2022-12-04T06:35:02.702Z,251.45
2022-12-04T06:37:30.217Z,224.25
2022-12-04T06:39:57.800Z,195.02
2022-12-04T06:42:25.586Z,203.90
2022-12-04T06:44:52.728Z,200.35
2022-12-04T06:47:20.361Z,192.18
2022-12-04T06:49:50.925Z,194.73
2022-12-04T06:52:18.789Z,178.05
2022-12-04T06:54:45.907Z,183.10
2022-12-04T06:57:13.530Z,197.02
2022-12-04T06:59:40.661Z,189.07
2022-12-04T07:02:09.711Z,222.80
2022-12-04T07:04:36.949Z,225.95
2022-12-04T07:07:04.522Z,210.80
2022-12-04T07:09:31.674Z,235.80
2022-12-04T07:11:59.187Z,261.75
2022-12-04T07:14:26.624Z,269.45
2022-12-04T07:16:54.447Z,317.85
2022-12-04T07:19:21.669Z,253.35
2022-12-04T07:21:49.179Z,268.65
2022-12-04T07:24:17.517Z,246.70
2022-12-04T07:26:45.346Z,296.35
2022-12-04T07:29:12.833Z,300.15
2022-12-04T07:31:40.521Z,248.50
2022-12-04T07:34:08.108Z,255.18
2022-12-04T07:36:35.888Z,277.52
2022-12-04T07:39:03.144Z,239.13
2022-12-04T07:41:30.682Z,181.52
2022-12-04T07:43:59.021Z,157.93
2022-12-04T07:46:28.214Z,158.68
2022-12-04T07:48:56.961Z,140.77
2022-12-04T07:51:27.542Z,158.88
2022-12-04T07:54:02.770Z,154.85
2022-12-04T07:56:31.276Z,150.73
2022-12-04T07:58:59.657Z,145.23
2022-12-04T08:01:27.301Z,162.70
2022-12-04T08:03:56.655Z,153.00
2022-12-04T08:06:25.933Z,153.35
2022-12-04T08:09:18.054Z,155.10
2022-12-04T08:12:05.740Z,168.38
2022-12-04T08:14:38.439Z,171.43
2022-12-04T08:17:06.911Z,168.90
2022-12-04T08:19:34.034Z,166.20
2022-12-04T08:22:01.578Z,171.40
2022-12-04T08:24:28.710Z,197.13
2022-12-04T08:26:56.224Z,194.90
2022-12-04T08:29:23.330Z,206.10
2022-12-04T08:31:50.901Z,187.52
2022-12-04T08:34:18.196Z,187.27
2022-12-04T08:36:45.804Z,185.88
2022-12-04T08:39:13.384Z,173.05
2022-12-04T08:41:41.129Z,173.95
2022-12-04T08:44:10.026Z,163.00
2022-12-04T08:46:39.447Z,155.43
2022-12-04T08:49:06.797Z,147.55
2022-12-04T08:51:37.365Z,178.10
2022-12-04T08:54:07.344Z,194.60
2022-12-04T08:56:36.279Z,176.23
2022-12-04T08:59:04.736Z,162.32
2022-12-04T09:01:32.959Z,163.48
2022-12-04T09:04:00.513Z,188.70
2022-12-04T09:06:28.315Z,164.80
2022-12-04T09:08:56.934Z,158.60
2022-12-04T09:11:27.685Z,147.55
2022-12-04T09:13:56.041Z,150.65
2022-12-04T09:16:26.333Z,161.45
2022-12-04T09:18:54.852Z,147.07
2022-12-04T09:21:24.154Z,152.52
2022-12-04T09:23:52.043Z,155.43
2022-12-04T09:26:24.169Z,142.40
2022-12-04T09:28:53.099Z,163.98
2022-12-04T09:31:21.936Z,178.98
2022-12-04T09:33:49.981Z,182.40
2022-12-04T09:36:19.039Z,191.25
2022-12-04T09:38:49.633Z,270.38
2022-12-04T09:41:36.284Z,538.08
2022-12-04T09:44:28.214Z,221.10
2022-12-04T09:47:12.405Z,273.25
2022-12-04T09:49:50.431Z,250.05
2022-12-04T09:52:31.154Z,207.20
2022-12-04T09:55:01.005Z,878.83
2022-12-04T09:57:46.563Z,687.28
2022-12-04T10:00:19.678Z,619.50
2022-12-04T10:03:18.916Z,1047.40
2022-12-04T10:06:32.011Z,971.63
2022-12-04T10:09:34.454Z,437.45
2022-12-04T10:16:43.467Z,244.30
2022-12-04T10:19:50.785Z,227.75
2022-12-04T10:24:54.958Z,216.20
2022-12-04T10:27:52.026Z,166.15
2022-12-04T10:30:24.573Z,321.40
2022-12-04T10:33:18.408Z,321.80
2022-12-04T10:35:50.447Z,170.05
2022-12-04T10:38:35.715Z,175.32
2022-12-04T10:41:25.517Z,186.10
2022-12-04T10:43:53.404Z,157.80
2022-12-04T10:46:28.000Z,201.65
2022-12-04T10:49:02.679Z,108.75
2022-12-04T10:51:39.954Z,89.30
2022-12-04T10:54:45.423Z,103.18
2022-12-04T10:57:16.666Z,76.32
2022-12-04T10:59:56.127Z,95.18
2022-12-04T11:02:34.634Z,105.55
2022-12-04T11:05:23.293Z,123.10
2022-12-04T11:07:51.950Z,168.57
2022-12-04T11:10:42.135Z,409.75
2022-12-04T11:13:12.084Z,180.48
2022-12-04T11:15:48.719Z,139.43
2022-12-04T11:18:24.323Z,118.53
2022-12-04T11:20:59.889Z,138.93
2022-12-04T11:23:32.620Z,105.50
2022-12-04T11:26:05.855Z,242.35
2022-12-04T11:28:42.868Z,85.85
2022-12-04T11:31:19.388Z,97.75
2022-12-04T11:36:25.324Z,62.20
2022-12-04T11:39:04.225Z,87.90
2022-12-04T11:41:33.389Z,57.58
2022-12-04T11:44:01.189Z,48.90
2022-12-04T11:46:31.508Z,39.15
2022-12-04T11:48:59.565Z,40.63
2022-12-04T11:52:26.115Z,32.58
2022-12-04T11:55:08.735Z,661.10
2022-12-04T11:57:55.080Z,29.20
2022-12-04T12:00:23.463Z,21.33
2022-12-04T12:03:10.306Z,19.33
2022-12-04T12:05:59.554Z,18.67
2022-12-04T12:08:41.919Z,22.02
2022-12-04T12:11:37.794Z,28.33
2022-12-04T12:14:20.151Z,34.05
2022-12-04T12:16:58.378Z,33.28
2022-12-04T12:20:04.368Z,14.80
2022-12-04T12:23:09.085Z,15.65
2022-12-04T12:26:10.283Z,20.98
2022-12-04T12:29:02.479Z,24.15
2022-12-04T12:31:39.586Z,30.23
2022-12-04T12:34:23.230Z,84.53
2022-12-04T12:36:57.809Z,22.92
2022-12-04T12:40:08.050Z,22.40
2022-12-04T12:42:44.292Z,18.10
2022-12-04T12:45:17.401Z,21.50
2022-12-04T12:47:51.089Z,19.63
2022-12-04T12:50:24.624Z,19.52
2022-12-04T12:52:52.654Z,25.33
2022-12-04T12:55:26.243Z,30.02
2022-12-04T12:58:16.940Z,35.38
2022-12-04T13:00:50.197Z,34.00
2022-12-04T13:03:37.716Z,19.35
2022-12-04T13:06:12.364Z,35.67
2022-12-04T13:08:53.108Z,104.40
2022-12-04T13:11:23.846Z,59.00
2022-12-04T13:14:03.931Z,39.10
2022-12-04T13:17:05.098Z,23.05
2022-12-04T13:19:46.476Z,33.63
2022-12-04T13:22:29.069Z,12.77
2022-12-04T13:25:34.484Z,24.98
2022-12-04T13:28:36.561Z,43.58
2022-12-04T13:31:19.385Z,30.08
2022-12-04T13:34:14.775Z,28.45
2022-12-04T13:37:16.519Z,33.90
2022-12-04T13:39:52.789Z,33.85
2022-12-04T13:42:28.894Z,23.88
2022-12-04T13:45:03.725Z,30.65
2022-12-04T13:47:34.810Z,33.78
2022-12-04T13:50:27.284Z,30.92
2022-12-04T13:52:55.971Z,29.33
2022-12-04T13:55:33.230Z,32.72
2022-12-04T13:58:04.433Z,30.67
2022-12-04T14:00:35.110Z,20.52
2022-12-04T14:03:26.357Z,47.53
2022-12-04T14:05:54.330Z,56.45
2022-12-04T14:08:28.971Z,61.65
2022-12-04T14:11:09.069Z,65.57
2022-12-04T14:13:43.798Z,79.32
2022-12-04T14:16:32.590Z,90.10
2022-12-04T14:19:03.045Z,146.18
2022-12-04T14:21:47.812Z,217.98
2022-12-04T14:24:30.064Z,197.55
2022-12-04T14:27:11.778Z,131.05
2022-12-04T14:29:39.874Z,157.80
2022-12-04T14:32:21.699Z,178.73
2022-12-04T14:34:50.457Z,189.88
2022-12-04T14:37:23.350Z,197.73
2022-12-04T14:39:52.233Z,194.25
2022-12-04T14:42:28.205Z,224.75
2022-12-04T14:45:01.198Z,194.90
2022-12-04T14:47:37.109Z,191.95
2022-12-04T14:50:34.844Z,211.50
2022-12-04T14:53:40.989Z,196.05
2022-12-04T14:56:27.590Z,183.63
2022-12-04T14:58:55.873Z,182.18
2022-12-04T15:01:51.175Z,201.30
2022-12-04T15:04:32.959Z,186.90
2022-12-04T15:07:03.048Z,183.55
2022-12-04T15:09:49.147Z,216.48
2022-12-04T15:12:35.773Z,199.50
2022-12-04T15:15:22.464Z,202.57
2022-12-04T15:20:56.264Z,231.82
2022-12-04T15:23:31.744Z,261.02
2022-12-04T15:26:02.627Z,237.02
2022-12-04T15:28:44.398Z,241.23
2022-12-04T15:31:20.440Z,224.55
2022-12-04T15:33:51.724Z,136.80
2022-12-04T15:36:25.005Z,82.30
2022-12-04T15:38:56.134Z,70.15
2022-12-04T15:41:33.498Z,133.35
2022-12-04T15:44:03.253Z,132.75
2022-12-04T15:46:34.870Z,185.20
2022-12-04T15:49:20.593Z,199.75
2022-12-04T15:51:48.802Z,197.57
2022-12-04T15:54:27.772Z,184.93
2022-12-04T15:57:04.175Z,196.38
2022-12-04T15:59:36.312Z,169.57
2022-12-04T16:02:24.036Z,130.85
2022-12-04T16:04:51.956Z,129.02
2022-12-04T16:07:24.309Z,122.45
2022-12-04T16:09:59.533Z,153.32
2022-12-04T16:12:32.359Z,179.98
2022-12-04T16:15:00.408Z,220.55
2022-12-04T16:17:32.521Z,218.52
2022-12-04T16:20:01.341Z,207.48
2022-12-04T16:22:30.533Z,215.70
2022-12-04T16:24:58.873Z,285.05
2022-12-04T16:27:26.653Z,275.52
2022-12-04T16:29:55.662Z,315.10
2022-12-04T16:32:28.804Z,301.80
2022-12-04T16:34:57.116Z,238.63
2022-12-04T16:37:29.602Z,213.55
2022-12-04T16:40:00.043Z,171.60
2022-12-04T16:42:30.241Z,133.45
2022-12-04T16:45:01.602Z,124.30
2022-12-04T16:47:31.108Z,141.57
2022-12-04T16:50:00.062Z,176.98
2022-12-04T16:52:29.926Z,251.13
2022-12-04T16:55:04.420Z,282.33
2022-12-04T16:57:34.420Z,271.10
2022-12-04T17:00:03.180Z,272.25
2022-12-04T17:02:32.187Z,275.40
2022-12-04T17:05:00.339Z,280.02
2022-12-04T17:07:28.120Z,294.38
2022-12-04T17:09:57.170Z,283.83
2022-12-04T17:12:25.817Z,277.58
2022-12-04T17:14:55.507Z,241.00
2022-12-04T17:17:23.068Z,244.02
2022-12-04T17:19:50.746Z,221.95
2022-12-04T17:22:21.168Z,214.90
2022-12-04T17:24:54.401Z,234.10
2022-12-04T17:27:24.573Z,225.02
2022-12-04T17:29:52.214Z,226.05
2022-12-04T17:32:19.471Z,246.80
2022-12-04T17:34:47.192Z,213.43
2022-12-04T17:37:14.991Z,209.07
2022-12-04T17:39:42.867Z,243.35
2022-12-04T17:42:10.134Z,250.27
2022-12-04T17:44:37.745Z,271.77
2022-12-04T17:47:05.359Z,371.27
2022-12-04T17:49:33.186Z,426.00
2022-12-04T17:52:00.928Z,389.42
2022-12-04T17:54:28.655Z,357.60
2022-12-04T17:56:57.979Z,366.35
2022-12-04T17:59:26.089Z,422.30
2022-12-04T18:01:53.535Z,420.52
2022-12-04T18:04:21.465Z,431.13
2022-12-04T18:06:48.829Z,456.77
2022-12-04T18:09:17.443Z,408.25
2022-12-04T18:11:47.301Z,419.23
2022-12-04T18:14:17.817Z,432.08
2022-12-04T18:16:53.093Z,436.92
2022-12-04T18:19:25.915Z,433.73
2022-12-04T18:21:57.207Z,384.27
2022-12-04T18:24:26.500Z,360.85
2022-12-04T18:26:54.184Z,295.75
2022-12-04T18:29:26.137Z,317.83
2022-12-04T18:31:54.671Z,372.15
2022-12-04T18:34:22.923Z,397.55
2022-12-04T18:36:50.605Z,444.25
2022-12-04T18:39:21.244Z,462.98
2022-12-04T18:41:50.225Z,493.15
2022-12-04T18:44:21.449Z,551.03
2022-12-04T18:46:51.259Z,506.30
2022-12-04T18:49:19.966Z,410.77
2022-12-04T18:51:49.899Z,377.73
2022-12-04T18:54:22.469Z,373.45
2022-12-04T18:56:50.490Z,411.10
2022-12-04T18:59:20.789Z,400.05
2022-12-04T19:01:50.436Z,471.85
2022-12-04T19:04:21.241Z,478.05
2022-12-04T19:06:55.900Z,424.63
2022-12-04T19:12:15.392Z,474.70
2022-12-04T19:14:43.222Z,532.17
2022-12-04T19:17:12.299Z,497.08
2022-12-04T19:19:41.840Z,499.88
2022-12-04T19:22:10.565Z,516.35
2022-12-04T19:24:39.674Z,518.00
2022-12-04T19:27:12.713Z,548.42
2022-12-04T19:29:43.712Z,547.63
2022-12-04T19:32:12.646Z,542.90
2022-12-04T19:34:41.426Z,539.97
2022-12-04T19:37:09.775Z,523.70
2022-12-04T19:39:37.649Z,542.05
2022-12-04T19:42:05.172Z,527.75
2022-12-04T19:44:50.005Z,550.90
2022-12-04T19:47:19.388Z,562.05
2022-12-04T19:49:48.777Z,529.83
2022-12-04T19:52:17.624Z,600.53
2022-12-04T19:54:47.155Z,547.00
2022-12-04T19:57:15.718Z,522.72
2022-12-04T19:59:46.584Z,517.17
2022-12-04T20:02:15.073Z,549.90
2022-12-04T20:04:43.477Z,627.70
2022-12-04T20:07:10.909Z,628.30
2022-12-04T20:09:38.485Z,580.30
2022-12-04T20:12:06.053Z,614.33
2022-12-04T20:14:34.107Z,609.63
2022-12-04T20:17:04.151Z,582.40
2022-12-04T20:19:31.987Z,536.63
2022-12-04T20:21:59.674Z,493.35
2022-12-04T20:24:27.514Z,500.58
2022-12-04T20:26:54.922Z,468.60
2022-12-04T20:29:22.678Z,445.27
2022-12-04T20:31:50.063Z,410.73
2022-12-04T20:34:19.213Z,406.35
2022-12-04T20:36:49.214Z,407.95
2022-12-04T20:39:18.319Z,438.30
2022-12-04T20:41:47.113Z,499.90
2022-12-04T20:44:17.063Z,469.70
2022-12-04T20:46:45.168Z,461.05
2022-12-04T20:49:20.736Z,478.73
2022-12-04T20:54:19.039Z,468.52
2022-12-04T20:56:49.017Z,614.50
2022-12-04T20:59:19.094Z,483.42
2022-12-04T21:01:47.512Z,487.35
2022-12-04T21:04:18.085Z,458.33
2022-12-04T21:06:49.863Z,448.08
2022-12-04T21:09:21.603Z,406.67
2022-12-04T21:11:56.215Z,355.27
2022-12-04T21:14:45.586Z,312.40
2022-12-04T21:17:18.682Z,339.33
2022-12-04T21:19:48.388Z,331.83
2022-12-04T21:22:17.544Z,338.65
2022-12-04T21:24:46.924Z,346.27
2022-12-04T21:27:19.175Z,368.02
2022-12-04T21:29:50.076Z,414.55
2022-12-04T21:32:20.183Z,540.92
2022-12-04T21:34:49.063Z,449.35
2022-12-04T21:37:16.393Z,475.75
2022-12-04T21:39:44.328Z,457.35
2022-12-04T21:42:30.452Z,390.90
2022-12-04T21:47:26.913Z,376.90
2022-12-04T21:49:54.815Z,386.90
2022-12-04T21:52:22.185Z,390.42
2022-12-04T21:54:54.322Z,398.42
2022-12-04T21:57:21.845Z,337.13
2022-12-04T21:59:51.630Z,306.80
2022-12-04T22:02:19.486Z,278.33
2022-12-04T22:04:47.601Z,264.88
2022-12-04T22:07:14.955Z,285.50
2022-12-04T22:09:44.336Z,282.27
2022-12-04T22:12:33.155Z,277.02
2022-12-04T22:14:59.120Z,322.70
2022-12-04T22:17:29.791Z,312.15
2022-12-04T22:19:57.531Z,310.95
2022-12-04T22:22:24.839Z,314.27
2022-12-04T22:24:52.324Z,436.92
2022-12-04T22:27:19.429Z,365.75
2022-12-04T22:29:50.655Z,389.88
2022-12-04T22:32:19.381Z,373.55
2022-12-04T22:34:49.708Z,377.42
2022-12-04T22:37:17.365Z,348.95
2022-12-04T22:39:44.873Z,326.05
2022-12-04T22:42:12.094Z,343.88
2022-12-04T22:44:39.574Z,313.85
2022-12-04T22:47:06.952Z,327.20
2022-12-04T22:49:34.470Z,321.50
2022-12-04T22:52:01.894Z,315.20
2022-12-04T22:54:29.389Z,310.92
2022-12-04T22:56:56.579Z,321.90
2022-12-04T22:59:24.094Z,316.90
2022-12-04T23:01:51.276Z,286.98
2022-12-04T23:04:18.866Z,279.08
2022-12-04T23:06:46.005Z,262.58
2022-12-04T23:09:16.567Z,247.23
2022-12-04T23:11:44.657Z,239.13
2022-12-04T23:14:15.414Z,253.45
2022-12-04T23:16:43.280Z,255.88
2022-12-04T23:19:14.452Z,251.25
2022-12-04T23:21:41.975Z,262.83
2022-12-04T23:24:10.399Z,271.27
2022-12-04T23:26:40.369Z,260.27
2022-12-04T23:29:29.786Z,258.23
2022-12-04T23:31:55.617Z,255.35
2022-12-04T23:34:23.189Z,258.50
2022-12-04T23:36:50.380Z,253.23
2022-12-04T23:39:17.872Z,255.60
2022-12-04T23:41:45.111Z,235.63
2022-12-04T23:44:12.514Z,236.18
2022-12-04T23:46:39.725Z,256.63
2022-12-04T23:49:07.199Z,255.32
2022-12-04T23:51:34.370Z,305.38
2022-12-04T23:54:01.918Z,298.42
2022-12-04T23:56:30.533Z,451.67
2022-12-04T23:58:58.518Z,352.15
